Time;durP1;ratioP1;P1;durP2;ratioP2;P2;SDS_P1;SDS_P2;PMS_P1;PMS_P2;Temp;Humidity;BMP_temperature;BMP_pressure;BME280_temperature;BME280_humidity;BME280_pressure;Samples;Min_cycle;Max_cycle;Signal;HPM_P1;HPM_P2
2023/10/05 00:03:38;;;;;;;;;;;;;;;20.73;61.56;102138.31;5034948;28;20524;-83
2023/10/05 00:06:25;;;;;;;;;;;;;;;20.79;61.46;102134.09;5038413;28;19925;-83
2023/10/05 00:08:50;;;;;;;;;;;;;;;20.78;61.47;102142.88;5049801;28;19924;-83
2023/10/05 00:11:31;;;;;;;;;;;;;;;20.79;61.43;102145.59;5030948;28;19924;-82
2023/10/05 00:13:58;;;;;;;;;;;;;;;20.81;61.36;102140.34;5036294;28;20349;-83
2023/10/05 00:16:31;;;;;;;;;;;;;;;20.78;61.43;102141.13;5046738;28;19925;-82
2023/10/05 00:18:56;;;;;;;;;;;;;;;20.76;61.43;102136.63;5033367;28;20019;-84
2023/10/05 00:21:22;;;;;;;;;;;;;;;20.75;61.29;102141.03;5041330;28;20008;-83
2023/10/05 00:23:57;;;;;;;;;;;;;;;20.77;61.32;102144.66;5043177;28;19928;-82
2023/10/05 00:26:29;;;;;;;;;;;;;;;20.78;61.29;102148.19;5022319;28;19925;-83
2023/10/05 00:29:15;;;;;;;;;;;;;;;20.74;61.28;102149.84;5047631;28;20011;-84
2023/10/05 00:31:41;;;;;;;;;;;;;;;20.69;61.39;102147.03;5042079;28;19917;-84
2023/10/05 00:34:24;;;;;;;;;;;;;;;20.75;61.24;102143.69;5017997;28;19916;-84
2023/10/05 00:36:50;;;;;;;;;;;;;;;20.74;61.20;102139.22;5058233;28;19970;-84
2023/10/05 00:39:19;;;;;;;;;;;;;;;20.71;61.37;102140.03;5027707;28;20268;-83
2023/10/05 00:41:44;;;;;;;;;;;;;;;20.68;61.34;102131.97;5049600;28;19924;-84
2023/10/05 00:44:12;;;;;;;;;;;;;;;20.74;61.22;102144.53;5038085;28;19913;-84
2023/10/05 00:46:39;;;;;;;;;;;;;;;20.73;61.11;102145.41;5049714;28;20241;-84
2023/10/05 00:49:16;;;;;;;;;;;;;;;20.74;61.18;102139.22;5038329;28;19913;-84
2023/10/05 00:51:44;;;;;;;;;;;;;;;20.73;61.18;102143.63;5019999;28;19917;-84
2023/10/05 00:54:16;;;;;;;;;;;;;;;20.78;61.05;102145.53;5040542;28;19991;-84
2023/10/05 00:56:42;;;;;;;;;;;;;;;20.73;61.17;102140.97;5033505;28;20023;-84
2023/10/05 00:59:10;;;;;;;;;;;;;;;20.73;61.14;102146.28;5033785;28;20012;-84
2023/10/05 01:04:34;;;;;;;;;;;;;;;20.66;61.24;102138.09;5045448;28;19955;-83
2023/10/05 01:07:06;;;;;;;;;;;;;;;20.70;61.27;102142.63;5047994;28;19917;-83
2023/10/05 01:09:56;;;;;;;;;;;;;;;20.72;61.24;102140.91;5032438;28;19948;-84
2023/10/05 01:14:53;;;;;;;;;;;;;;;20.71;61.09;102147.09;5033580;28;19917;-84
2023/10/05 01:17:21;;;;;;;;;;;;;;;20.72;61.10;102140.91;5048922;28;19929;-84
2023/10/05 01:19:58;;;;;;;;;;;;;;;20.64;61.12;102132.72;5047267;28;19917;-84
2023/10/05 01:22:24;;;;;;;;;;;;;;;20.67;61.23;102138.09;5046011;28;20428;-83
2023/10/05 01:24:49;;;;;;;;;;;;;;;20.71;61.08;102137.38;5037065;28;19921;-83
2023/10/05 01:27:15;;;;;;;;;;;;;;;20.71;60.98;102129.41;5033201;28;19920;-83
2023/10/05 01:29:41;;;;;;;;;;;;;;;20.71;61.19;102134.72;5053057;28;19917;-83
2023/10/05 01:32:07;;;;;;;;;;;;;;;20.73;60.93;102130.34;5035082;28;20382;-84
2023/10/05 01:34:32;;;;;;;;;;;;;;;20.67;61.29;102132.81;5040305;28;20370;-84
2023/10/05 01:36:58;;;;;;;;;;;;;;;20.67;61.26;102130.16;5051101;28;19986;-83
2023/10/05 01:39:25;;;;;;;;;;;;;;;20.66;61.17;102125.72;5036023;28;19916;-84
2023/10/05 01:41:51;;;;;;;;;;;;;;;20.69;61.09;102125.78;5039185;28;19920;-83
2023/10/05 01:44:17;;;;;;;;;;;;;;;20.68;61.04;102123.06;5050988;28;19913;-83
2023/10/05 01:46:42;;;;;;;;;;;;;;;20.62;61.10;102128.19;5048137;28;20299;-83
2023/10/05 01:49:08;;;;;;;;;;;;;;;20.54;61.24;102119.94;5033037;28;19924;-82
2023/10/05 01:51:34;;;;;;;;;;;;;;;20.66;60.88;102127.47;5045271;28;19938;-83
2023/10/05 01:54:11;;;;;;;;;;;;;;;20.64;61.07;102132.72;5052028;28;19916;-82
2023/10/05 01:56:37;;;;;;;;;;;;;;;20.64;61.13;102131.81;5027504;28;19951;-82
2023/10/05 01:59:06;;;;;;;;;;;;;;;20.64;60.92;102132.72;5052544;28;20012;-84
2023/10/05 02:01:36;;;;;;;;;;;;;;;20.64;60.94;102139.78;5033620;28;20392;-84
2023/10/05 02:04:02;;;;;;;;;;;;;;;20.64;60.90;102140.66;5045676;28;19978;-83
2023/10/05 02:06:28;;;;;;;;;;;;;;;20.60;61.11;102141.41;5031338;28;20700;-84
2023/10/05 02:08:54;;;;;;;;;;;;;;;20.63;61.04;102141.50;5029537;28;20366;-84
2023/10/05 02:11:27;;;;;;;;;;;;;;;20.63;60.94;102149.47;5043394;28;19956;-83
2023/10/05 02:13:53;;;;;;;;;;;;;;;20.62;60.84;102147.69;5037695;28;20449;-83
2023/10/05 02:16:20;;;;;;;;;;;;;;;20.62;60.86;102145.03;5050732;28;20087;-82
2023/10/05 02:18:47;;;;;;;;;;;;;;;20.61;61.19;102148.50;5051569;28;19917;-83
2023/10/05 02:21:17;;;;;;;;;;;;;;;20.65;60.82;102146.88;5050599;28;19956;-84
2023/10/05 02:23:44;;;;;;;;;;;;;;;20.61;61.05;102140.53;5052863;28;20325;-83
2023/10/05 02:26:10;;;;;;;;;;;;;;;20.63;60.88;102144.16;5020113;28;19917;-83
2023/10/05 02:28:39;;;;;;;;;;;;;;;20.59;60.83;102150.22;5029185;28;20417;-85
2023/10/05 02:31:06;;;;;;;;;;;;;;;20.54;60.89;102139.41;5047128;28;19975;-84
2023/10/05 02:33:32;;;;;;;;;;;;;;;20.56;60.80;102147.44;5033458;28;19968;-85
2023/10/05 02:36:11;;;;;;;;;;;;;;;20.58;60.84;102151.06;5045043;28;19952;-84
2023/10/05 02:38:37;;;;;;;;;;;;;;;20.58;60.80;102145.75;5044855;28;20385;-84
2023/10/05 02:41:04;;;;;;;;;;;;;;;20.57;60.92;102140.34;5051772;28;19991;-85
2023/10/05 02:43:30;;;;;;;;;;;;;;;20.56;60.91;102146.53;5052239;28;19913;-85
2023/10/05 02:46:08;;;;;;;;;;;;;;;20.56;60.87;102149.19;5047000;28;19982;-83
2023/10/05 02:48:35;;;;;;;;;;;;;;;20.56;60.92;102152.72;5019311;28;19984;-84
2023/10/05 02:51:05;;;;;;;;;;;;;;;20.54;60.93;102155.31;5015154;28;19996;-83
2023/10/05 02:53:37;;;;;;;;;;;;;;;20.54;60.86;102160.63;5051897;28;19924;-83
2023/10/05 02:56:03;;;;;;;;;;;;;;;20.57;60.86;102157.19;5018288;28;19921;-84
2023/10/05 02:58:29;;;;;;;;;;;;;;;20.56;60.77;102155.38;5038697;28;19927;-84
2023/10/05 03:00:54;;;;;;;;;;;;;;;20.57;60.84;102157.19;5050616;28;19921;-84
2023/10/05 03:03:21;;;;;;;;;;;;;;;20.56;60.83;102155.38;5034127;28;19916;-84
2023/10/05 03:05:48;;;;;;;;;;;;;;;20.53;60.85;102160.56;4965385;28;2433026;-84
2023/10/05 03:08:13;;;;;;;;;;;;;;;20.54;60.84;102163.28;5053247;28;19979;-84
2023/10/05 03:10:43;;;;;;;;;;;;;;;20.52;60.94;102158.78;5032639;28;19913;-84
2023/10/05 03:13:11;;;;;;;;;;;;;;;20.53;60.78;102158.84;5042517;28;19925;-82
2023/10/05 03:15:38;;;;;;;;;;;;;;;20.51;60.76;102168.50;5041889;28;19917;-83
2023/10/05 03:18:06;;;;;;;;;;;;;;;20.50;60.75;102168.44;5045716;28;20000;-84
2023/10/05 03:20:31;;;;;;;;;;;;;;;20.53;60.68;102169.47;5052013;28;19920;-83
2023/10/05 03:22:57;;;;;;;;;;;;;;;20.50;60.81;102166.69;5035102;28;19917;-83
2023/10/05 03:25:23;;;;;;;;;;;;;;;20.52;60.77;102164.09;5051594;28;20005;-83
2023/10/05 03:27:48;;;;;;;;;;;;;;;20.51;60.80;102167.56;5050469;28;19983;-84
2023/10/05 03:30:14;;;;;;;;;;;;;;;20.46;61.01;102163.88;5053124;28;20003;-82
2023/10/05 03:32:40;;;;;;;;;;;;;;;20.46;60.77;102164.75;5031835;28;19924;-85
2023/10/05 03:35:08;;;;;;;;;;;;;;;20.47;60.80;102165.69;5033393;28;19913;-84
2023/10/05 03:37:34;;;;;;;;;;;;;;;20.48;60.81;102159.53;5044311;28;19990;-83
2023/10/05 03:42:28;;;;;;;;;;;;;;;20.44;60.90;102162.91;5032513;28;19980;-84
2023/10/05 03:45:03;;;;;;;;;;;;;;;20.45;61.05;102160.31;5031687;28;19948;-82
2023/10/05 03:47:34;;;;;;;;;;;;;;;20.50;60.64;102160.47;5026055;28;19925;-83
2023/10/05 03:49:59;;;;;;;;;;;;;;;20.44;60.96;102162.91;5046448;28;19962;-82
2023/10/05 03:52:29;;;;;;;;;;;;;;;20.45;60.68;102162.09;5050029;28;20014;-84
2023/10/05 03:55:10;;;;;;;;;;;;;;;20.46;60.85;102161.22;5025087;28;20143;-83
2023/10/05 03:57:41;;;;;;;;;;;;;;;20.44;60.72;102170.88;5044498;28;19921;-85
2023/10/05 04:02:47;;;;;;;;;;;;;;;20.42;60.77;102172.56;5044713;28;19924;-85
2023/10/05 04:05:17;;;;;;;;;;;;;;;20.42;60.77;102172.56;5030915;28;19925;-84
2023/10/05 04:07:43;;;;;;;;;;;;;;;20.39;60.76;102173.38;5030780;28;19920;-84
2023/10/05 04:10:13;;;;;;;;;;;;;;;20.38;60.73;102173.31;5045981;28;19956;-84
2023/10/05 04:12:40;;;;;;;;;;;;;;;20.38;60.68;102173.31;5030853;28;19967;-85
2023/10/05 04:15:11;;;;;;;;;;;;;;;20.37;60.78;102174.16;5048258;28;20029;-84
2023/10/05 04:17:36;;;;;;;;;;;;;;;20.39;60.70;102181.31;5045036;28;19928;-84
2023/10/05 04:20:06;;;;;;;;;;;;;;;20.34;60.92;102186.47;5045276;28;19930;-85
2023/10/05 04:22:33;;;;;;;;;;;;;;;20.33;60.89;102182.00;5043138;28;20656;-85
2023/10/05 04:25:00;;;;;;;;;;;;;;;20.35;60.85;102187.38;5046805;28;19928;-85
2023/10/05 04:27:25;;;;;;;;;;;;;;;20.34;60.67;102185.56;5039536;28;19921;-85
2023/10/05 04:29:50;;;;;;;;;;;;;;;20.36;60.78;102196.22;5030011;28;19974;-85
2023/10/05 04:32:16;;;;;;;;;;;;;;;20.40;60.66;102192.84;5045583;28;19948;-85
2023/10/05 04:34:41;;;;;;;;;;;;;;;20.36;60.55;102189.16;5029509;28;19964;-87
2023/10/05 04:37:07;;;;;;;;;;;;;;;20.38;60.73;102190.13;5048477;28;19921;-85
2023/10/05 04:39:32;;;;;;;;;;;;;;;20.40;60.29;102190.19;5047904;28;19967;-86
2023/10/05 04:42:05;;;;;;;;;;;;;;;20.32;60.62;102193.47;5029861;28;19978;-89
2023/10/05 04:44:31;;;;;;;;;;;;;;;20.34;60.53;102191.78;5017191;28;19924;-87
2023/10/05 04:46:57;;;;;;;;;;;;;;;20.30;60.72;102196.91;5038851;28;19917;-88
2023/10/05 04:49:24;;;;;;;;;;;;;;;20.33;60.57;102199.66;5037656;28;19917;-87
2023/10/05 04:51:51;;;;;;;;;;;;;;;20.35;60.58;102208.59;5049216;28;19975;-88
2023/10/05 04:54:18;;;;;;;;;;;;;;;20.29;60.90;102214.56;5016133;28;19913;-90
2023/10/05 04:56:54;;;;;;;;;;;;;;;20.33;60.61;102215.59;5029377;28;19999;-90
2023/10/05 04:59:25;;;;;;;;;;;;;;;20.33;60.57;102218.25;5035865;28;19913;-89
2023/10/05 05:07:06;;;;;;;;;;;;;;;20.25;60.75;102228.56;5032142;28;19913;-90
2023/10/05 05:09:38;;;;;;;;;;;;;;;20.24;60.92;102226.78;5027976;28;20438;-90
2023/10/05 05:12:04;;;;;;;;;;;;;;;20.27;60.66;102231.28;5030161;28;19925;-90
2023/10/05 05:14:33;;;;;;;;;;;;;;;20.25;60.75;102227.66;5040271;28;19916;-89
2023/10/05 05:17:04;;;;;;;;;;;;;;;20.25;60.60;102225.00;5034244;28;20016;-90
2023/10/05 05:19:30;;;;;;;;;;;;;;;20.21;60.73;102231.94;5015595;28;20039;-90
2023/10/05 05:21:56;;;;;;;;;;;;;;;20.22;60.71;102232.88;5029104;28;19928;-89
2023/10/05 05:24:22;;;;;;;;;;;;;;;20.21;60.72;102231.94;5031316;28;19944;-87
2023/10/05 05:26:48;;;;;;;;;;;;;;;20.22;60.88;102241.72;5035127;28;20368;-87
2023/10/05 05:29:14;;;;;;;;;;;;;;;20.23;60.81;102234.66;5023534;28;19927;-87
2023/10/05 05:31:39;;;;;;;;;;;;;;;20.23;60.75;102240.84;5044573;28;21009;-87
2023/10/05 05:34:06;;;;;;;;;;;;;;;20.23;60.82;102243.50;5026044;28;19921;-88
2023/10/05 05:36:36;;;;;;;;;;;;;;;20.19;61.01;102240.69;5038928;28;19962;-88
2023/10/05 05:39:03;;;;;;;;;;;;;;;20.20;60.88;102238.09;5028976;28;19917;-88
2023/10/05 05:41:28;;;;;;;;;;;;;;;20.17;60.96;102240.66;5036766;28;19960;-86
2023/10/05 05:43:55;;;;;;;;;;;;;;;20.24;60.66;102245.34;5028551;28;19944;-86
2023/10/05 05:46:21;;;;;;;;;;;;;;;20.20;60.94;102248.72;5039766;28;19917;-89
2023/10/05 05:48:52;;;;;;;;;;;;;;;20.20;60.77;102256.66;5026932;28;19968;-87
2023/10/05 05:51:18;;;;;;;;;;;;;;;20.21;60.79;102258.47;5029478;28;20382;-88
2023/10/05 05:53:44;;;;;;;;;;;;;;;20.19;60.97;102261.91;5027118;28;19977;-87
2023/10/05 05:56:19;;;;;;;;;;;;;;;20.22;60.82;102262.03;5024288;28;20016;-90
2023/10/05 05:58:53;;;;;;;;;;;;;;;20.23;60.80;102263.84;5017329;28;19917;-89
2023/10/05 06:01:20;;;;;;;;;;;;;;;20.22;60.74;102267.34;5028595;28;19928;-88
2023/10/05 06:03:49;;;;;;;;;;;;;;;20.18;61.04;102265.44;5048742;28;19917;-87
2023/10/05 06:06:15;;;;;;;;;;;;;;;20.16;61.28;102265.34;5024702;28;19928;-88
2023/10/05 06:08:42;;;;;;;;;;;;;;;20.19;60.96;102268.13;5013084;28;19920;-86
2023/10/05 06:11:08;;;;;;;;;;;;;;;20.14;61.20;102275.00;5045066;28;20440;-87
2023/10/05 06:13:36;;;;;;;;;;;;;;;20.17;61.09;102275.13;5046245;28;19920;-87
2023/10/05 06:16:13;;;;;;;;;;;;;;;20.12;61.28;102279.34;5029389;28;19921;-89
2023/10/05 06:18:38;;;;;;;;;;;;;;;20.21;61.10;102278.78;5030094;28;20019;-88
2023/10/05 06:21:07;;;;;;;;;;;;;;;20.19;61.08;102289.34;5027556;28;20004;-89
2023/10/05 06:23:35;;;;;;;;;;;;;;;20.20;61.03;102285.84;5023206;28;19970;-90
2023/10/05 06:26:01;;;;;;;;;;;;;;;20.22;60.83;102285.94;5015511;28;20531;-86
2023/10/05 06:28:32;;;;;;;;;;;;;;;20.25;60.80;102284.25;5029674;28;19924;-89
2023/10/05 06:30:57;;;;;;;;;;;;;;;20.18;61.11;102284.88;5030565;28;19975;-90
2023/10/05 06:33:24;;;;;;;;;;;;;;;20.17;61.01;102290.13;5015890;28;19921;-90
2023/10/05 06:35:49;;;;;;;;;;;;;;;20.20;60.99;102298.22;5030829;28;20455;-87
2023/10/05 06:38:19;;;;;;;;;;;;;;;20.23;60.90;102296.56;5026596;28;19924;-91
2023/10/05 06:40:44;;;;;;;;;;;;;;;20.25;60.86;102296.63;5013995;28;20389;-92
2023/10/05 06:43:11;;;;;;;;;;;;;;;20.24;61.12;102292.19;5041700;28;19983;-91
2023/10/05 06:45:36;;;;;;;;;;;;;;;20.26;60.83;102287.84;5023323;28;20317;-90
2023/10/05 06:48:04;;;;;;;;;;;;;;;20.26;60.98;102296.69;5015980;28;19924;-88
2023/10/05 06:50:29;;;;;;;;;;;;;;;20.25;60.91;102292.22;5022318;28;19921;-89
2023/10/05 06:52:55;;;;;;;;;;;;;;;20.25;60.95;102289.56;5018811;28;19916;-90
2023/10/05 06:55:23;;;;;;;;;;;;;;;20.25;60.90;102297.53;5018953;28;19916;-91
2023/10/05 06:57:50;;;;;;;;;;;;;;;20.27;60.99;102294.94;5020942;28;19936;-88
2023/10/05 07:00:16;;;;;;;;;;;;;;;20.24;61.07;102297.50;5032437;28;19940;-90
2023/10/05 07:02:46;;;;;;;;;;;;;;;20.29;60.82;102296.81;5035309;28;20364;-91
2023/10/05 07:05:14;;;;;;;;;;;;;;;20.26;61.13;102309.97;5052591;28;19931;-92
2023/10/05 07:07:43;;;;;;;;;;;;;;;20.31;60.88;102300.44;5016805;28;20305;-91
2023/10/05 07:10:28;;;;;;;;;;;;;;;20.31;60.76;102299.53;5034429;28;20370;-92
2023/10/05 07:12:54;;;;;;;;;;;;;;;20.31;60.75;102303.06;5049361;28;19917;-90
2023/10/05 07:15:22;;;;;;;;;;;;;;;20.28;61.04;102305.63;5019105;28;19975;-90
2023/10/05 07:17:48;;;;;;;;;;;;;;;20.29;60.96;102309.19;5034112;28;19928;-90
2023/10/05 07:20:19;;;;;;;;;;;;;;;20.31;60.88;102310.16;5050816;28;19917;-91
2023/10/05 07:22:46;;;;;;;;;;;;;;;20.31;60.92;102315.44;5033964;28;19917;-90
2023/10/05 07:25:12;;;;;;;;;;;;;;;20.32;60.75;102315.53;5032315;28;19923;-89
2023/10/05 07:27:38;;;;;;;;;;;;;;;20.23;61.20;102300.97;5035799;28;20003;-87
2023/10/05 07:30:04;;;;;;;;;;;;;;;20.07;61.83;102313.66;5035100;28;19913;-89
2023/10/05 07:32:34;;;;;;;;;;;;;;;20.05;61.86;102307.38;5033504;28;19920;-88
2023/10/05 07:35:00;;;;;;;;;;;;;;;20.02;61.98;102314.28;5033454;28;19923;-88
2023/10/05 07:37:26;;;;;;;;;;;;;;;20.05;61.81;102307.38;5053159;28;19917;-87
2023/10/05 07:39:54;;;;;;;;;;;;;;;20.16;61.60;102305.16;5018585;28;19917;-88
2023/10/05 07:42:20;;;;;;;;;;;;;;;20.14;61.51;102307.72;5019537;28;20008;-87
2023/10/05 07:44:45;;;;;;;;;;;;;;;20.08;61.80;102311.88;5022562;28;19956;-88
2023/10/05 07:47:14;;;;;;;;;;;;;;;20.19;61.18;102313.22;5035977;28;19917;-89
2023/10/05 07:49:41;;;;;;;;;;;;;;;20.13;61.41;102313.00;5036442;28;19999;-88
2023/10/05 07:52:09;;;;;;;;;;;;;;;20.01;61.90;102318.69;5037065;28;19920;-89
2023/10/05 07:54:38;;;;;;;;;;;;;;;20.00;62.17;102310.69;5035008;28;20382;-89
2023/10/05 07:57:10;;;;;;;;;;;;;;;20.00;62.36;102315.97;5051403;28;19975;-88
2023/10/05 07:59:42;;;;;;;;;;;;;;;20.05;62.23;102309.13;5034689;28;19954;-88
2023/10/05 08:02:11;;;;;;;;;;;;;;;20.10;62.07;102313.75;5051593;28;19913;-88
2023/10/05 08:04:37;;;;;;;;;;;;;;;20.06;62.72;102308.28;5003369;28;19928;-88
2023/10/05 08:07:03;;;;;;;;;;;;;;;20.07;62.91;102310.09;5017980;28;19916;-88
2023/10/05 08:09:29;;;;;;;;;;;;;;;20.18;61.57;102316.72;5017480;28;20378;-88
2023/10/05 08:11:59;;;;;;;;;;;;;;;20.12;61.82;102304.09;5044934;28;19924;-87
2023/10/05 08:14:25;;;;;;;;;;;;;;;20.14;61.59;102312.13;5028671;28;19925;-88
2023/10/05 08:16:55;;;;;;;;;;;;;;;20.14;62.45;102309.47;5030102;28;19924;-89
2023/10/05 08:19:24;;;;;;;;;;;;;;;20.19;62.51;102317.63;5018072;28;19982;-88
2023/10/05 08:21:51;;;;;;;;;;;;;;;20.12;62.72;102320.03;5032081;28;19924;-87
2023/10/05 08:24:17;;;;;;;;;;;;;;;20.04;63.73;102320.56;5032199;28;19917;-87
2023/10/05 08:26:42;;;;;;;;;;;;;;;20.05;62.96;102323.28;5027553;28;20150;-87
2023/10/05 08:29:09;;;;;;;;;;;;;;;20.06;62.51;102325.09;5014735;28;19920;-87
2023/10/05 08:31:35;;;;;;;;;;;;;;;20.06;63.29;102325.09;5042910;28;20353;-87
2023/10/05 08:34:03;;;;;;;;;;;;;;;20.06;62.84;102324.19;5029341;28;19917;-87
2023/10/05 08:36:33;;;;;;;;;;;;;;;20.08;63.18;102322.50;5046424;28;20023;-87
2023/10/05 08:39:00;;;;;;;;;;;;;;;20.07;64.46;102318.94;5032241;28;19921;-88
2023/10/05 08:41:35;;;;;;;;;;;;;;;20.09;63.84;102313.72;5041552;28;19913;-88
2023/10/05 08:44:10;;;;;;;;;;;;;;;20.09;64.13;102316.38;5029323;28;19916;-88
2023/10/05 08:46:41;;;;;;;;;;;;;;;20.12;63.02;102316.47;5049956;28;19988;-86
2023/10/05 08:49:09;;;;;;;;;;;;;;;20.09;64.91;102314.59;5017811;28;19967;-86
2023/10/05 08:51:41;;;;;;;;;;;;;;;20.09;63.95;102313.72;5043513;28;19924;-88
2023/10/05 08:54:11;;;;;;;;;;;;;;;20.13;64.74;102313.91;5033441;28;19967;-87
2023/10/05 08:56:41;;;;;;;;;;;;;;;20.10;64.22;102310.19;5015198;28;19928;-88
2023/10/05 08:59:13;;;;;;;;;;;;;;;20.11;64.82;102314.69;5022101;28;19917;-86
2023/10/05 09:01:42;;;;;;;;;;;;;;;20.04;65.00;102324.13;5045049;28;19978;-88
2023/10/05 09:06:47;;;;;;;;;;;;;;;20.12;64.99;102314.72;5012302;28;20038;-89
2023/10/05 09:09:15;;;;;;;;;;;;;;;20.10;64.90;102324.38;4994720;28;19992;-89
2023/10/05 09:11:42;;;;;;;;;;;;;;;20.03;64.70;102324.97;5012462;28;19968;-89
2023/10/05 09:14:17;;;;;;;;;;;;;;;20.13;63.41;102320.94;4995441;28;19976;-88
2023/10/05 09:16:45;;;;;;;;;;;;;;;20.10;64.24;102316.41;4998152;28;20357;-88
2023/10/05 09:19:17;;;;;;;;;;;;;;;20.09;64.29;102324.31;5013696;28;19956;-89
2023/10/05 09:21:44;;;;;;;;;;;;;;;20.12;65.20;102317.38;5001407;28;20000;-88
2023/10/05 09:24:19;;;;;;;;;;;;;;;20.16;64.89;102321.06;5000018;28;20401;-88
2023/10/05 09:26:55;;;;;;;;;;;;;;;20.13;65.16;102326.25;4989388;28;19917;-88
2023/10/05 09:29:21;;;;;;;;;;;;;;;20.13;65.40;102323.59;5010023;28;19925;-87
2023/10/05 09:31:51;;;;;;;;;;;;;;;20.12;65.49;102322.69;4997443;28;20398;-87
2023/10/05 09:34:19;;;;;;;;;;;;;;;20.10;65.30;102328.78;4999572;28;19917;-87
2023/10/05 09:36:46;;;;;;;;;;;;;;;20.15;65.06;102324.56;5015078;28;19925;-88
2023/10/05 09:39:12;;;;;;;;;;;;;;;20.13;65.25;102326.25;4996367;28;19913;-87
2023/10/05 09:41:37;;;;;;;;;;;;;;;20.20;65.55;102324.75;4988961;28;19920;-88
2023/10/05 09:44:07;;;;;;;;;;;;;;;20.17;65.50;102319.31;4997744;28;19917;-88
2023/10/05 09:46:34;;;;;;;;;;;;;;;20.14;65.38;102318.34;5013518;28;19917;-88
2023/10/05 09:49:01;;;;;;;;;;;;;;;20.16;65.65;102309.56;5007358;28;19972;-88
2023/10/05 09:51:27;;;;;;;;;;;;;;;20.16;66.08;102315.75;5006769;28;20415;-89
2023/10/05 09:53:52;;;;;;;;;;;;;;;20.14;65.46;102317.44;5013043;28;19913;-87
2023/10/05 09:56:20;;;;;;;;;;;;;;;20.16;65.54;102309.56;5031285;28;19948;-88
2023/10/05 09:58:46;;;;;;;;;;;;;;;20.16;65.77;102314.84;4991120;28;19917;-88
2023/10/05 10:01:20;;;;;;;;;;;;;;;20.18;65.43;102310.53;5006140;28;19917;-89
2023/10/05 10:03:47;;;;;;;;;;;;;;;20.21;65.75;102302.66;5014810;28;20387;-90
2023/10/05 10:06:14;;;;;;;;;;;;;;;20.22;65.44;102301.84;5012938;28;19920;-90
2023/10/05 10:08:50;;;;;;;;;;;;;;;20.21;65.21;102302.66;5021787;28;19921;-89
2023/10/05 10:11:20;;;;;;;;;;;;;;;20.19;65.33;102302.59;5030301;28;19912;-89
2023/10/05 10:14:01;;;;;;;;;;;;;;;20.27;65.69;102301.16;5025253;28;19964;-90
2023/10/05 10:16:27;;;;;;;;;;;;;;;20.22;65.63;102305.38;5053283;28;19917;-90
2023/10/05 10:18:53;;;;;;;;;;;;;;;20.17;65.98;102299.00;5027699;28;20680;-89
2023/10/05 10:21:25;;;;;;;;;;;;;;;20.19;66.35;102299.94;5050543;28;19913;-89
2023/10/05 10:24:00;;;;;;;;;;;;;;;20.22;66.82;102310.69;5037526;28;19917;-91
2023/10/05 10:26:25;;;;;;;;;;;;;;;20.21;66.37;102295.59;5020607;28;19940;-91
2023/10/05 10:31:29;;;;;;;;;;;;;;;20.20;66.71;102290.25;5033239;28;19917;-89
2023/10/05 10:33:56;;;;;;;;;;;;;;;20.18;66.53;102282.22;5030497;28;19913;-89
2023/10/05 10:36:23;;;;;;;;;;;;;;;20.20;66.69;102283.19;5036412;28;19916;-90
2023/10/05 10:38:51;;;;;;;;;;;;;;;20.24;66.34;102278.94;5023125;28;19917;-88
2023/10/05 10:41:20;;;;;;;;;;;;;;;20.27;66.78;102274.63;5041637;28;20009;-89
2023/10/05 10:43:52;;;;;;;;;;;;;;;20.27;66.54;102271.06;5032918;28;19932;-89
2023/10/05 10:46:30;;;;;;;;;;;;;;;20.28;66.75;102273.78;5046699;28;19950;-88
2023/10/05 10:48:59;;;;;;;;;;;;;;;20.24;66.93;102266.56;5042345;28;19925;-87
2023/10/05 10:51:31;;;;;;;;;;;;;;;20.28;66.18;102268.47;5036592;28;19913;-88
2023/10/05 10:53:58;;;;;;;;;;;;;;;20.32;66.36;102269.50;5026509;28;19982;-87
2023/10/05 10:56:57;;;;;;;;;;;;;;;20.25;66.99;102271.00;5054157;28;20015;-87
2023/10/05 10:59:20;;;;;;;;;;;;;;;20.28;66.01;102271.13;5031864;28;20435;-89
2023/10/05 11:01:52;;;;;;;;;;;;;;;20.33;66.22;102266.00;5033516;28;19945;-88
2023/10/05 11:04:23;;;;;;;;;;;;;;;20.29;65.95;102262.31;5049082;28;19955;-89
2023/10/05 11:06:50;;;;;;;;;;;;;;;20.28;66.55;102257.88;5027972;28;20123;-89
2023/10/05 11:09:16;;;;;;;;;;;;;;;20.30;66.40;102261.50;5034180;28;19913;-88
2023/10/05 11:11:44;;;;;;;;;;;;;;;20.33;66.55;102255.38;5044909;28;20012;-86
2023/10/05 11:14:21;;;;;;;;;;;;;;;20.33;65.74;102250.09;5037936;28;20036;-86
2023/10/05 11:16:59;;;;;;;;;;;;;;;20.48;65.75;102244.44;5045531;28;19928;-86
2023/10/05 11:19:46;;;;;;;;;;;;;;;20.43;65.86;102254.91;5032741;28;19917;-86
2023/10/05 11:22:12;;;;;;;;;;;;;;;20.52;65.15;102246.38;5034378;28;19952;-86
2023/10/05 11:25:47;;;;;;;;;;;;;;;20.41;65.90;102242.41;5049634;28;19915;-87
2023/10/05 11:27:56;;;;;;;;;;;;;;;20.41;65.81;102239.78;5045049;28;19923;-87
2023/10/05 11:30:49;;;;;;;;;;;;;;;20.42;65.67;102237.16;5037291;28;19951;-86
2023/10/05 11:33:17;;;;;;;;;;;;;;;20.43;65.51;102236.31;5041499;28;19917;-87
2023/10/05 11:35:49;;;;;;;;;;;;;;;20.42;65.95;102233.59;5018810;28;19912;-87
2023/10/05 11:38:16;;;;;;;;;;;;;;;20.39;65.93;102229.09;5039953;28;20259;-87
2023/10/05 11:40:49;;;;;;;;;;;;;;;20.40;65.99;102235.28;5021000;28;19913;-87
2023/10/05 11:43:17;;;;;;;;;;;;;;;20.45;65.49;102228.44;5048731;28;19916;-86
2023/10/05 11:45:58;;;;;;;;;;;;;;;20.46;65.95;102223.16;5034483;28;20355;-86
2023/10/05 11:48:48;;;;;;;;;;;;;;;20.50;66.00;102224.16;5038604;28;19968;-87
2023/10/05 11:51:19;;;;;;;;;;;;;;;20.54;65.78;102219.03;5014983;28;20056;-87
2023/10/05 11:53:44;;;;;;;;;;;;;;;20.52;65.62;102218.06;5032914;28;19913;-88
2023/10/05 11:56:10;;;;;;;;;;;;;;;20.55;66.06;102214.63;5051049;28;19970;-87
2023/10/05 11:58:37;;;;;;;;;;;;;;;20.54;66.21;102221.69;5004410;28;20429;-88
2023/10/05 12:01:05;;;;;;;;;;;;;;;20.60;66.13;102212.19;5044077;28;20408;-87
2023/10/05 12:03:31;;;;;;;;;;;;;;;20.63;65.66;102210.53;5051495;28;19966;-87
2023/10/05 12:06:04;;;;;;;;;;;;;;;20.60;65.84;102209.53;5018586;28;19922;-87
2023/10/05 12:08:30;;;;;;;;;;;;;;;20.68;65.63;102206.31;5002713;28;19917;-87
2023/10/05 12:10:59;;;;;;;;;;;;;;;20.66;65.79;102202.69;4998787;28;19919;-86
2023/10/05 12:13:28;;;;;;;;;;;;;;;20.69;66.18;102205.44;5022623;28;19932;-86
2023/10/05 12:15:54;;;;;;;;;;;;;;;20.74;65.24;102205.59;5001470;28;19917;-86
2023/10/05 12:18:19;;;;;;;;;;;;;;;20.84;65.01;102201.53;5026745;28;20342;-86
2023/10/05 12:20:46;;;;;;;;;;;;;;;20.84;65.77;102206.81;5021284;28;19917;-86
2023/10/05 12:23:14;;;;;;;;;;;;;;;20.86;64.97;102199.81;5018404;28;20464;-86
2023/10/05 12:25:40;;;;;;;;;;;;;;;20.91;65.38;102198.22;5004930;28;19921;-86
2023/10/05 12:28:08;;;;;;;;;;;;;;;20.95;64.87;102202.78;5007176;28;20000;-86
2023/10/05 12:30:34;;;;;;;;;;;;;;;20.92;65.22;102197.38;5025403;28;19921;-87
2023/10/05 12:33:00;;;;;;;;;;;;;;;21.00;65.00;102198.53;5011404;28;19918;-88
2023/10/05 12:35:29;;;;;;;;;;;;;;;21.06;64.77;102189.88;5012771;28;19920;-86
2023/10/05 12:37:55;;;;;;;;;;;;;;;21.05;64.73;102190.72;5023087;28;19925;-86
2023/10/05 12:40:26;;;;;;;;;;;;;;;20.99;65.53;102193.19;5041590;28;19944;-85
2023/10/05 12:42:51;;;;;;;;;;;;;;;21.04;65.00;102188.91;5028097;28;19944;-86
2023/10/05 12:45:20;;;;;;;;;;;;;;;21.03;64.86;102190.66;5024047;28;20469;-86
2023/10/05 12:47:46;;;;;;;;;;;;;;;20.99;65.81;102191.41;5034603;28;19913;-86
2023/10/05 12:50:12;;;;;;;;;;;;;;;21.03;64.94;102173.84;5038445;28;19914;-85
2023/10/05 12:52:37;;;;;;;;;;;;;;;21.02;65.35;102180.91;5000282;28;19964;-86
2023/10/05 12:55:07;;;;;;;;;;;;;;;21.11;64.64;102181.22;5016110;28;19920;-86
2023/10/05 12:57:33;;;;;;;;;;;;;;;20.98;65.27;102173.69;5021362;28;19976;-86
2023/10/05 12:59:58;;;;;;;;;;;;;;;21.04;64.86;102163.28;5011267;28;20353;-85
2023/10/05 13:02:24;;;;;;;;;;;;;;;21.20;64.53;102169.09;5020869;28;19917;-86
2023/10/05 13:04:49;;;;;;;;;;;;;;;21.04;65.66;102168.59;5011807;28;19947;-86
2023/10/05 13:07:18;;;;;;;;;;;;;;;21.03;65.46;102171.19;4986881;28;19913;-86